PWSweather.com
Personal Weather Stations
Station Observations
SEVANL01
SevillaES 41004

SevillaES 41004

Lat: 37.383633, Lon: -5.985787

Elevation: 19.685

Station Type: Davis Vantage Pro2

www.tiempoensevilla.es

High Low Average
Temperature 52.9°F11.6°C 46.2°F7.9°C 49.9°F9.9°C
Dew Point 50.0°F10.0°C 42.4°F5.8°C 46.4°F8.0°C
Winds 5.4 mph 8.7 kmh Calm Calm 2.0 mph ESE3.2 kmh ESE
Wind Gusts 17.0 mph27.4 kmh 1.0 mph1.6 kmh 5.0 mph8.0 kmh
Humidity 93% 78% 88%
Pressure 29.95 in1014.2 mb 29.77 in1008.1 mb -
Precipitation 0.23 in5.8 mm - -
Hour Temp Dew Point Humidity Winds Wind Gusts Pressure Precip Precip Rate Daily Precip Total
12:00 AM 52.9°F11.6°C 46.2°F7.9°C 78% 1.6 mph NE2.6 kmh NE 4.0 mph6.4 kmh 29.95 in1014.2 mb 0.00 in0.0 mm 0.00 in0.0 mm 0.00 in0.0 mm
12:20 AM 52.1°F11.2°C 45.8°F7.7°C 79% 2.2 mph N3.5 kmh N 5.0 mph8.0 kmh 29.95 in1014.2 mb 0.00 in0.0 mm 0.00 in0.0 mm 0.00 in0.0 mm
12:40 AM 50.9°F10.5°C 45.3°F7.4°C 81% 2.9 mph NNW4.7 kmh NNW 4.0 mph6.4 kmh 29.95 in1014.2 mb 0.00 in0.0 mm 0.00 in0.0 mm 0.00 in0.0 mm
01:00 AM 50.8°F10.4°C 45.5°F7.5°C 82% 1.0 mph N1.6 kmh N 3.0 mph4.8 kmh 29.95 in1014.2 mb 0.00 in0.0 mm 0.00 in0.0 mm 0.00 in0.0 mm
01:20 AM 50.5°F10.3°C 45.2°F7.3°C 82% 2.0 mph N3.2 kmh N 5.0 mph8.0 kmh 29.95 in1014.2 mb 0.00 in0.0 mm 0.00 in0.0 mm 0.00 in0.0 mm
01:40 AM 49.7°F9.8°C 44.7°F7.1°C 83% 2.2 mph N3.5 kmh N 5.0 mph8.0 kmh 29.94 in1013.9 mb 0.00 in0.0 mm 0.00 in0.0 mm 0.00 in0.0 mm
02:00 AM 49.5°F9.7°C 44.6°F7.0°C 83% 2.0 mph N3.2 kmh N 5.0 mph8.0 kmh 29.94 in1013.9 mb 0.00 in0.0 mm 0.00 in0.0 mm 0.00 in0.0 mm
02:20 AM 49.5°F9.7°C 44.2°F6.8°C 82% 1.2 mph NE1.9 kmh NE 3.0 mph4.8 kmh 29.93 in1013.5 mb 0.00 in0.0 mm 0.00 in0.0 mm 0.00 in0.0 mm
02:40 AM 49.4°F9.7°C 44.1°F6.7°C 82% 2.0 mph NE3.2 kmh NE 4.0 mph6.4 kmh 29.93 in1013.5 mb 0.00 in0.0 mm 0.00 in0.0 mm 0.00 in0.0 mm
03:00 AM 49.1°F9.5°C 43.8°F6.6°C 82% 1.9 mph NE3.1 kmh NE 4.0 mph6.4 kmh 29.92 in1013.2 mb 0.00 in0.0 mm 0.00 in0.0 mm 0.00 in0.0 mm
03:20 AM 48.7°F9.3°C 43.5°F6.4°C 82% 2.0 mph NE3.2 kmh NE 4.0 mph6.4 kmh 29.92 in1013.2 mb 0.00 in0.0 mm 0.00 in0.0 mm 0.00 in0.0 mm
03:40 AM 48.7°F9.3°C 43.8°F6.6°C 83% 2.0 mph NE3.2 kmh NE 4.0 mph6.4 kmh 29.92 in1013.2 mb 0.00 in0.0 mm 0.00 in0.0 mm 0.00 in0.0 mm
04:00 AM 48.5°F9.2°C 43.6°F6.4°C 83% 2.5 mph ENE4.0 kmh ENE 7.0 mph11.3 kmh 29.91 in1012.9 mb 0.00 in0.0 mm 0.00 in0.0 mm 0.00 in0.0 mm
04:20 AM 48.2°F9.0°C 43.3°F6.3°C 83% 1.5 mph NE2.4 kmh NE 4.0 mph6.4 kmh 29.91 in1012.9 mb 0.00 in0.0 mm 0.00 in0.0 mm 0.00 in0.0 mm
04:40 AM 47.8°F8.8°C 43.2°F6.2°C 84% 2.0 mph NE3.2 kmh NE 6.0 mph9.7 kmh 29.90 in1012.5 mb 0.00 in0.0 mm 0.00 in0.0 mm 0.00 in0.0 mm
05:00 AM 47.4°F8.6°C 42.8°F6.0°C 84% 2.0 mph NE3.2 kmh NE 4.0 mph6.4 kmh 29.89 in1012.2 mb 0.00 in0.0 mm 0.00 in0.0 mm 0.00 in0.0 mm
05:20 AM 47.0°F8.3°C 42.4°F5.8°C 84% 2.0 mph NE3.2 kmh NE 4.0 mph6.4 kmh 29.89 in1012.2 mb 0.00 in0.0 mm 0.00 in0.0 mm 0.00 in0.0 mm
05:40 AM 46.9°F8.3°C 42.6°F5.9°C 85% 2.1 mph ENE3.4 kmh ENE 4.0 mph6.4 kmh 29.88 in1011.9 mb 0.00 in0.0 mm 0.00 in0.0 mm 0.00 in0.0 mm
06:00 AM 47.4°F8.6°C 43.4°F6.3°C 86% 1.3 mph ENE2.1 kmh ENE 2.0 mph3.2 kmh 29.89 in1012.2 mb 0.00 in0.0 mm 0.00 in0.0 mm 0.00 in0.0 mm
06:20 AM 47.8°F8.8°C 43.8°F6.6°C 86% Calm Calm 2.0 mph3.2 kmh 29.88 in1011.9 mb 0.00 in0.0 mm 0.00 in0.0 mm 0.00 in0.0 mm
06:40 AM 47.5°F8.6°C 43.2°F6.2°C 85% 1.6 mph S2.6 kmh S 3.0 mph4.8 kmh 29.88 in1011.9 mb 0.00 in0.0 mm 0.00 in0.0 mm 0.00 in0.0 mm
07:00 AM 47.5°F8.6°C 43.2°F6.2°C 85% 1.0 mph S1.6 kmh S 2.0 mph3.2 kmh 29.88 in1011.9 mb 0.00 in0.0 mm 0.00 in0.0 mm 0.00 in0.0 mm
07:20 AM 47.6°F8.7°C 43.0°F6.1°C 84% 1.0 mph S1.6 kmh S 3.0 mph4.8 kmh 29.89 in1012.2 mb 0.00 in0.0 mm 0.00 in0.0 mm 0.00 in0.0 mm
07:40 AM 47.2°F8.4°C 42.6°F5.9°C 84% 1.6 mph S2.6 kmh S 3.0 mph4.8 kmh 29.89 in1012.2 mb 0.00 in0.0 mm 0.00 in0.0 mm 0.00 in0.0 mm
08:00 AM 46.5°F8.1°C 42.5°F5.8°C 86% 3.0 mph SSE4.8 kmh SSE 5.0 mph8.0 kmh 29.89 in1012.2 mb 0.01 in0.3 mm 0.02 in0.5 mm 0.01 in0.3 mm
08:20 AM 46.2°F7.9°C 42.5°F5.8°C 87% 2.0 mph NNE3.2 kmh NNE 4.0 mph6.4 kmh 29.88 in1011.9 mb 0.01 in0.3 mm 0.00 in0.0 mm 0.01 in0.3 mm
08:40 AM 46.7°F8.2°C 43.3°F6.3°C 88% 1.7 mph NE2.7 kmh NE 4.0 mph6.4 kmh 29.88 in1011.9 mb 0.01 in0.3 mm 0.00 in0.0 mm 0.01 in0.3 mm
09:00 AM 46.7°F8.2°C 43.3°F6.3°C 88% 3.0 mph NE4.8 kmh NE 5.0 mph8.0 kmh 29.88 in1011.9 mb 0.00 in0.0 mm 0.00 in0.0 mm 0.01 in0.3 mm
09:20 AM 47.0°F8.3°C 43.6°F6.4°C 88% 2.6 mph NE4.2 kmh NE 5.0 mph8.0 kmh 29.88 in1011.9 mb 0.00 in0.0 mm 0.00 in0.0 mm 0.01 in0.3 mm
09:40 AM 47.4°F8.6°C 44.0°F6.7°C 88% 3.0 mph NE4.8 kmh NE 8.0 mph12.9 kmh 29.88 in1011.9 mb 0.00 in0.0 mm 0.00 in0.0 mm 0.01 in0.3 mm
10:00 AM 47.8°F8.8°C 44.7°F7.1°C 89% 2.4 mph NE3.9 kmh NE 6.0 mph9.7 kmh 29.89 in1012.2 mb 0.00 in0.0 mm 0.00 in0.0 mm 0.01 in0.3 mm
10:20 AM 48.2°F9.0°C 44.8°F7.1°C 88% 3.7 mph NE6.0 kmh NE 8.0 mph12.9 kmh 29.88 in1011.9 mb 0.00 in0.0 mm 0.00 in0.0 mm 0.01 in0.3 mm
10:40 AM 48.6°F9.2°C 45.5°F7.5°C 89% 3.4 mph NE5.5 kmh NE 7.0 mph11.3 kmh 29.88 in1011.9 mb 0.00 in0.0 mm 0.00 in0.0 mm 0.01 in0.3 mm
11:00 AM 48.8°F9.3°C 45.7°F7.6°C 89% 4.0 mph NE6.4 kmh NE 9.0 mph14.5 kmh 29.87 in1011.5 mb 0.00 in0.0 mm 0.00 in0.0 mm 0.01 in0.3 mm
11:20 AM 49.0°F9.4°C 45.6°F7.6°C 88% 3.2 mph NE5.1 kmh NE 5.0 mph8.0 kmh 29.87 in1011.5 mb 0.00 in0.0 mm 0.00 in0.0 mm 0.01 in0.3 mm
11:40 AM 49.8°F9.9°C 46.4°F8.0°C 88% 3.5 mph E5.6 kmh E 8.0 mph12.9 kmh 29.86 in1011.2 mb 0.00 in0.0 mm 0.00 in0.0 mm 0.01 in0.3 mm
12:00 PM 50.1°F10.1°C 46.7°F8.2°C 88% 3.2 mph SE5.1 kmh SE 8.0 mph12.9 kmh 29.85 in1010.8 mb 0.01 in0.3 mm 0.02 in0.5 mm 0.02 in0.5 mm
12:20 PM 50.4°F10.2°C 47.3°F8.5°C 89% 2.8 mph SE4.5 kmh SE 8.0 mph12.9 kmh 29.85 in1010.8 mb 0.03 in0.8 mm 0.06 in1.5 mm 0.04 in1.0 mm
12:40 PM 49.7°F9.8°C 46.9°F8.3°C 90% 4.0 mph NNE6.4 kmh NNE 8.0 mph12.9 kmh 29.84 in1010.5 mb 0.05 in1.3 mm 0.06 in1.5 mm 0.06 in1.5 mm
01:00 PM 49.6°F9.8°C 46.8°F8.2°C 90% 3.0 mph NE4.8 kmh NE 7.0 mph11.3 kmh 29.83 in1010.2 mb 0.04 in1.0 mm 0.00 in0.0 mm 0.06 in1.5 mm
01:20 PM 50.2°F10.1°C 47.4°F8.6°C 90% 2.4 mph ENE3.9 kmh ENE 8.0 mph12.9 kmh 29.82 in1009.8 mb 0.02 in0.5 mm 0.00 in0.0 mm 0.06 in1.5 mm
01:40 PM 50.7°F10.4°C 47.9°F8.8°C 90% 3.0 mph NE4.8 kmh NE 5.0 mph8.0 kmh 29.81 in1009.5 mb 0.00 in0.0 mm 0.00 in0.0 mm 0.06 in1.5 mm
02:00 PM 50.7°F10.4°C 47.9°F8.8°C 90% 3.3 mph NE5.3 kmh NE 8.0 mph12.9 kmh 29.80 in1009.1 mb 0.02 in0.5 mm 0.03 in0.8 mm 0.07 in1.8 mm
02:20 PM 50.4°F10.2°C 47.9°F8.8°C 91% 3.0 mph NE4.8 kmh NE 8.0 mph12.9 kmh 29.79 in1008.8 mb 0.03 in0.8 mm 0.03 in0.8 mm 0.09 in2.3 mm
02:40 PM 50.3°F10.2°C 47.8°F8.8°C 91% 4.0 mph NE6.4 kmh NE 8.0 mph12.9 kmh 29.79 in1008.8 mb 0.05 in1.3 mm 0.06 in1.5 mm 0.10 in2.5 mm
03:00 PM 50.5°F10.3°C 48.3°F9.1°C 92% 3.0 mph NNE4.8 kmh NNE 10.0 mph16.1 kmh 29.78 in1008.5 mb 0.09 in2.3 mm 0.06 in1.5 mm 0.17 in4.3 mm
03:20 PM 51.0°F10.6°C 49.0°F9.4°C 93% 5.4 mph NW8.7 kmh NW 17.0 mph27.4 kmh 29.78 in1008.5 mb 0.09 in2.3 mm 0.00 in0.0 mm 0.17 in4.3 mm
03:40 PM 51.2°F10.7°C 49.0°F9.4°C 92% 2.6 mph NNE4.2 kmh NNE 5.0 mph8.0 kmh 29.77 in1008.1 mb 0.07 in1.8 mm 0.00 in0.0 mm 0.17 in4.3 mm
04:00 PM 51.9°F11.1°C 49.6°F9.8°C 92% 2.5 mph ENE4.0 kmh ENE 7.0 mph11.3 kmh 29.78 in1008.5 mb 0.01 in0.3 mm 0.00 in0.0 mm 0.17 in4.3 mm
04:20 PM 51.8°F11.0°C 49.5°F9.7°C 92% 3.0 mph NNE4.8 kmh NNE 7.0 mph11.3 kmh 29.78 in1008.5 mb 0.00 in0.0 mm 0.00 in0.0 mm 0.17 in4.3 mm
04:40 PM 51.9°F11.1°C 49.6°F9.8°C 92% 2.6 mph N4.2 kmh N 6.0 mph9.7 kmh 29.78 in1008.5 mb 0.00 in0.0 mm 0.00 in0.0 mm 0.17 in4.3 mm
05:00 PM 51.4°F10.8°C 49.2°F9.6°C 92% 4.3 mph NW6.9 kmh NW 10.0 mph16.1 kmh 29.79 in1008.8 mb 0.00 in0.0 mm 0.00 in0.0 mm 0.17 in4.3 mm
05:20 PM 50.9°F10.5°C 48.7°F9.3°C 92% 5.3 mph NNW8.5 kmh NNW 11.0 mph17.7 kmh 29.79 in1008.8 mb 0.00 in0.0 mm 0.00 in0.0 mm 0.17 in4.3 mm
05:40 PM 51.1°F10.6°C 48.6°F9.2°C 91% 4.1 mph NNW6.6 kmh NNW 9.0 mph14.5 kmh 29.80 in1009.1 mb 0.00 in0.0 mm 0.00 in0.0 mm 0.17 in4.3 mm
06:00 PM 51.0°F10.6°C 48.5°F9.2°C 91% 3.4 mph NNW5.5 kmh NNW 5.0 mph8.0 kmh 29.80 in1009.1 mb 0.00 in0.0 mm 0.00 in0.0 mm 0.17 in4.3 mm
06:20 PM 51.1°F10.6°C 48.3°F9.1°C 90% 2.0 mph N3.2 kmh N 4.0 mph6.4 kmh 29.80 in1009.1 mb 0.00 in0.0 mm 0.00 in0.0 mm 0.17 in4.3 mm
06:40 PM 51.5°F10.8°C 48.7°F9.3°C 90% 1.1 mph N1.8 kmh N 4.0 mph6.4 kmh 29.80 in1009.1 mb 0.00 in0.0 mm 0.00 in0.0 mm 0.17 in4.3 mm
07:00 PM 51.5°F10.8°C 48.7°F9.3°C 90% 0.7 mph NE1.1 kmh NE 3.0 mph4.8 kmh 29.80 in1009.1 mb 0.00 in0.0 mm 0.00 in0.0 mm 0.17 in4.3 mm
07:20 PM 51.9°F11.1°C 49.1°F9.5°C 90% Calm Calm 2.0 mph3.2 kmh 29.81 in1009.5 mb 0.00 in0.0 mm 0.00 in0.0 mm 0.17 in4.3 mm
07:40 PM 52.0°F11.1°C 49.2°F9.6°C 90% 1.0 mph ENE1.6 kmh ENE 3.0 mph4.8 kmh 29.81 in1009.5 mb 0.00 in0.0 mm 0.00 in0.0 mm 0.17 in4.3 mm
08:00 PM 52.0°F11.1°C 49.2°F9.6°C 90% 0.9 mph ENE1.4 kmh ENE 2.0 mph3.2 kmh 29.82 in1009.8 mb 0.00 in0.0 mm 0.00 in0.0 mm 0.17 in4.3 mm
08:20 PM 52.1°F11.2°C 49.3°F9.6°C 90% 0.3 mph ENE0.5 kmh ENE 3.0 mph4.8 kmh 29.82 in1009.8 mb 0.00 in0.0 mm 0.00 in0.0 mm 0.17 in4.3 mm
08:40 PM 52.3°F11.3°C 49.5°F9.7°C 90% 0.8 mph ENE1.3 kmh ENE 3.0 mph4.8 kmh 29.82 in1009.8 mb 0.00 in0.0 mm 0.00 in0.0 mm 0.17 in4.3 mm
09:00 PM 52.6°F11.4°C 49.8°F9.9°C 90% Calm Calm 1.0 mph1.6 kmh 29.83 in1010.2 mb 0.00 in0.0 mm 0.00 in0.0 mm 0.17 in4.3 mm
09:20 PM 52.6°F11.4°C 49.8°F9.9°C 90% 1.0 mph NE1.6 kmh NE 3.0 mph4.8 kmh 29.82 in1009.8 mb 0.01 in0.3 mm 0.03 in0.8 mm 0.18 in4.6 mm
09:40 PM 52.8°F11.6°C 49.9°F9.9°C 90% Calm Calm 2.0 mph3.2 kmh 29.83 in1010.2 mb 0.03 in0.8 mm 0.06 in1.5 mm 0.20 in5.1 mm
10:00 PM 52.6°F11.4°C 50.0°F10.0°C 91% 2.0 mph NW3.2 kmh NW 4.0 mph6.4 kmh 29.83 in1010.2 mb 0.03 in0.8 mm 0.00 in0.0 mm 0.20 in5.1 mm
10:20 PM 51.4°F10.8°C 48.9°F9.4°C 91% 4.1 mph NNW6.6 kmh NNW 11.0 mph17.7 kmh 29.84 in1010.5 mb 0.03 in0.8 mm 0.00 in0.0 mm 0.21 in5.3 mm
10:40 PM 51.2°F10.7°C 49.0°F9.4°C 92% 1.4 mph NNE2.3 kmh NNE 3.0 mph4.8 kmh 29.84 in1010.5 mb 0.02 in0.5 mm 0.00 in0.0 mm 0.22 in5.6 mm
11:00 PM 51.4°F10.8°C 49.2°F9.6°C 92% 1.0 mph NNE1.6 kmh NNE 3.0 mph4.8 kmh 29.84 in1010.5 mb 0.02 in0.5 mm 0.00 in0.0 mm 0.22 in5.6 mm
11:20 PM 51.9°F11.1°C 49.6°F9.8°C 92% Calm Calm 1.0 mph1.6 kmh 29.84 in1010.5 mb 0.02 in0.5 mm 0.00 in0.0 mm 0.23 in5.8 mm
11:40 PM 52.1°F11.2°C 49.8°F9.9°C 92% Calm Calm 1.0 mph1.6 kmh 29.84 in1010.5 mb 0.01 in0.3 mm 0.00 in0.0 mm 0.23 in5.8 mm